createdAt,value
2024-03-14T00:00:07.082Z,93.11
2024-03-14T00:01:07.061Z,93.19
2024-03-14T00:02:07.134Z,93.24
2024-03-14T00:03:07.150Z,93.79
2024-03-14T00:04:07.166Z,94.88
2024-03-14T00:05:07.245Z,92.23
2024-03-14T00:06:07.236Z,92.63
2024-03-14T00:07:07.314Z,92.35
2024-03-14T00:08:07.382Z,95.35
2024-03-14T00:09:07.492Z,94.53
2024-03-14T00:10:07.651Z,94.17
2024-03-14T00:11:07.767Z,94.16
2024-03-14T00:12:07.776Z,92.83
2024-03-14T00:13:07.800Z,94.26
2024-03-14T00:14:07.882Z,94.03
2024-03-14T00:15:08.157Z,93.77
2024-03-14T00:16:07.994Z,92.62
2024-03-14T00:17:08.055Z,92.23
2024-03-14T00:18:08.220Z,93.62
2024-03-14T00:19:08.155Z,95.82
2024-03-14T00:20:08.241Z,94.44
2024-03-14T00:21:08.371Z,94.50
2024-03-14T00:22:08.448Z,93.00
2024-03-14T00:23:08.449Z,93.37
2024-03-14T00:24:08.531Z,94.18
2024-03-14T00:25:08.494Z,93.99
2024-03-14T00:26:08.585Z,94.12
2024-03-14T00:27:08.615Z,93.47
2024-03-14T00:28:08.636Z,94.57
2024-03-14T00:29:08.694Z,94.37
2024-03-14T00:30:08.758Z,94.88
2024-03-14T00:31:08.933Z,94.35
2024-03-14T00:32:09.031Z,94.56
2024-03-14T00:33:09.273Z,93.34
2024-03-14T00:34:09.248Z,95.22
2024-03-14T00:35:09.352Z,93.91
2024-03-14T00:36:09.482Z,94.30
2024-03-14T00:37:09.570Z,91.94
2024-03-14T00:38:09.693Z,93.12
2024-03-14T00:39:09.910Z,92.59
2024-03-14T00:40:09.924Z,96.50
2024-03-14T00:41:09.946Z,93.45
2024-03-14T00:42:10.264Z,95.61
2024-03-14T00:43:10.140Z,94.15
2024-03-14T00:44:10.285Z,93.68
2024-03-14T00:45:10.538Z,92.50
2024-03-14T00:46:10.559Z,95.46
2024-03-14T00:47:10.671Z,93.84
2024-03-14T00:48:10.863Z,95.13
2024-03-14T00:49:10.825Z,94.58
2024-03-14T00:50:10.943Z,93.62
2024-03-14T00:51:11.138Z,92.53
2024-03-14T00:52:11.150Z,95.56
2024-03-14T00:53:11.263Z,95.46
2024-03-14T00:54:12.116Z,93.39
2024-03-14T00:55:11.555Z,94.75
2024-03-14T00:56:11.487Z,96.03
2024-03-14T00:57:11.406Z,92.62
2024-03-14T00:58:11.393Z,95.21
2024-03-14T00:59:11.504Z,94.19
2024-03-14T01:00:11.671Z,92.09
2024-03-14T01:01:11.694Z,96.74
2024-03-14T01:02:11.816Z,93.39
2024-03-14T01:03:11.853Z,95.08
2024-03-14T01:04:11.816Z,95.68
2024-03-14T01:05:11.819Z,93.53
2024-03-14T01:06:11.886Z,95.29
2024-03-14T01:07:11.840Z,96.14
2024-03-14T01:08:11.934Z,95.87
2024-03-14T01:09:12.013Z,94.83
2024-03-14T01:10:12.080Z,96.14
2024-03-14T01:11:12.186Z,96.90
2024-03-14T01:12:12.285Z,94.05
2024-03-14T01:13:12.282Z,95.28
2024-03-14T01:14:12.283Z,94.99
2024-03-14T01:15:12.312Z,95.12
2024-03-14T01:16:12.299Z,95.70
2024-03-14T01:17:12.374Z,94.58
2024-03-14T01:18:12.601Z,96.16
2024-03-14T01:19:12.559Z,95.23
2024-03-14T01:20:12.640Z,94.39
2024-03-14T01:21:12.679Z,96.92
2024-03-14T01:22:12.633Z,97.19
2024-03-14T01:23:12.701Z,94.41
2024-03-14T01:24:12.736Z,94.79
2024-03-14T01:25:12.715Z,98.39
2024-03-14T01:26:12.778Z,94.78
2024-03-14T01:27:12.928Z,96.63
2024-03-14T01:28:12.890Z,93.68
2024-03-14T01:29:12.996Z,96.39
2024-03-14T01:30:13.114Z,94.43
2024-03-14T01:31:13.175Z,95.72
2024-03-14T01:32:13.317Z,93.87
2024-03-14T01:33:13.547Z,95.35
2024-03-14T01:34:13.468Z,93.28
2024-03-14T01:35:13.492Z,94.88
2024-03-14T01:36:13.516Z,94.92
2024-03-14T01:37:13.494Z,95.34
2024-03-14T01:38:13.525Z,96.73
2024-03-14T01:39:13.557Z,96.06
2024-03-14T01:40:13.614Z,95.09
2024-03-14T01:41:13.700Z,96.66
2024-03-14T01:42:13.871Z,96.15
2024-03-14T01:43:13.703Z,96.18
2024-03-14T01:44:13.722Z,96.21
2024-03-14T01:45:13.790Z,96.31
2024-03-14T01:46:13.725Z,96.67
2024-03-14T01:47:13.685Z,96.67
2024-03-14T01:48:13.877Z,95.75
2024-03-14T01:49:13.696Z,95.76
2024-03-14T01:50:13.717Z,95.89
2024-03-14T01:51:13.725Z,94.34
2024-03-14T01:52:13.715Z,95.60
2024-03-14T01:53:13.717Z,98.04
2024-03-14T01:54:13.704Z,96.45
2024-03-14T01:55:13.698Z,95.98
2024-03-14T01:56:13.740Z,95.46
2024-03-14T01:57:13.890Z,97.26
2024-03-14T01:58:13.837Z,94.78
2024-03-14T01:59:13.868Z,94.52
2024-03-14T02:00:13.897Z,95.94
2024-03-14T02:01:13.916Z,95.17
2024-03-14T02:02:13.897Z,94.98
2024-03-14T02:03:14.042Z,95.58
2024-03-14T02:04:14.010Z,98.59
2024-03-14T02:05:13.967Z,95.57
2024-03-14T02:06:13.981Z,96.85
2024-03-14T02:07:13.977Z,96.29
2024-03-14T02:08:14.066Z,97.05
2024-03-14T02:09:14.049Z,94.39
2024-03-14T02:10:14.067Z,98.15
2024-03-14T02:11:14.155Z,98.00
2024-03-14T02:12:14.183Z,95.24
2024-03-14T02:13:14.069Z,94.86
2024-03-14T02:14:14.152Z,95.32
2024-03-14T02:15:14.313Z,95.60
2024-03-14T02:16:14.342Z,96.55
2024-03-14T02:17:14.369Z,98.39
2024-03-14T02:18:14.423Z,94.81
2024-03-14T02:19:14.307Z,94.26
2024-03-14T02:20:14.379Z,94.89
2024-03-14T02:21:14.410Z,96.87
2024-03-14T02:22:14.389Z,95.48
2024-03-14T02:23:14.391Z,96.05
2024-03-14T02:24:14.415Z,96.77
2024-03-14T02:25:14.429Z,94.44
2024-03-14T02:26:14.400Z,97.23
2024-03-14T02:27:14.554Z,97.77
2024-03-14T02:28:14.496Z,95.76
2024-03-14T02:29:14.484Z,99.54
2024-03-14T02:30:14.494Z,100.78
2024-03-14T02:31:14.467Z,98.04
2024-03-14T02:32:14.473Z,96.42
2024-03-14T02:33:14.555Z,97.37
2024-03-14T02:34:14.506Z,94.31
2024-03-14T02:35:14.518Z,98.58
2024-03-14T02:36:14.546Z,98.62
2024-03-14T02:37:14.570Z,97.33
2024-03-14T02:38:14.649Z,95.55
2024-03-14T02:39:14.746Z,96.61
2024-03-14T02:40:14.678Z,97.85
2024-03-14T02:41:14.669Z,93.43
2024-03-14T02:42:14.736Z,95.64
2024-03-14T02:43:14.689Z,96.82
2024-03-14T02:44:14.849Z,94.32
2024-03-14T02:45:14.890Z,97.95
2024-03-14T02:46:14.915Z,98.00
2024-03-14T02:47:14.888Z,95.17
2024-03-14T02:48:14.937Z,96.82
2024-03-14T02:49:14.903Z,96.70
2024-03-14T02:50:14.939Z,97.95
2024-03-14T02:51:15.055Z,98.38
2024-03-14T02:52:15.141Z,96.76
2024-03-14T02:53:15.192Z,96.89
2024-03-14T02:54:15.328Z,97.14
2024-03-14T02:55:15.404Z,94.61
2024-03-14T02:56:15.590Z,96.62
2024-03-14T02:57:15.591Z,97.30
2024-03-14T02:58:15.496Z,96.08
2024-03-14T02:59:15.552Z,97.01
2024-03-14T03:00:15.640Z,96.64
2024-03-14T03:01:15.637Z,96.66
2024-03-14T03:02:15.691Z,99.19
2024-03-14T03:03:15.846Z,97.85
2024-03-14T03:04:15.939Z,97.35
2024-03-14T03:05:16.015Z,97.74
2024-03-14T03:06:16.039Z,97.66
2024-03-14T03:07:16.016Z,95.97
2024-03-14T03:08:16.039Z,96.40
2024-03-14T03:09:16.058Z,97.05
2024-03-14T03:10:16.029Z,95.21
2024-03-14T03:11:16.151Z,98.07
2024-03-14T03:12:16.208Z,97.17
2024-03-14T03:13:16.116Z,95.12
2024-03-14T03:14:16.195Z,95.76
2024-03-14T03:15:16.328Z,95.88
2024-03-14T03:16:16.267Z,95.43
2024-03-14T03:17:16.248Z,96.40
2024-03-14T03:18:16.357Z,95.39
2024-03-14T03:19:16.296Z,96.10
2024-03-14T03:20:16.314Z,95.82
2024-03-14T03:21:16.275Z,95.68
2024-03-14T03:22:16.363Z,96.59
2024-03-14T03:23:16.487Z,96.07
2024-03-14T03:24:16.648Z,95.84
2024-03-14T03:25:16.713Z,97.52
2024-03-14T03:26:16.812Z,96.59
2024-03-14T03:27:16.931Z,98.01
2024-03-14T03:28:16.990Z,94.63
2024-03-14T03:29:17.020Z,98.95
2024-03-14T03:30:17.056Z,98.58
2024-03-14T03:31:17.010Z,96.04
2024-03-14T03:32:16.996Z,98.13
2024-03-14T03:33:17.106Z,97.63
2024-03-14T03:34:17.171Z,98.24
2024-03-14T03:35:17.269Z,95.03
2024-03-14T03:36:17.431Z,97.62
2024-03-14T03:37:17.479Z,96.60
2024-03-14T03:38:17.563Z,98.40
2024-03-14T03:39:17.718Z,97.19
2024-03-14T03:40:17.763Z,96.54
2024-03-14T03:41:17.897Z,98.00
2024-03-14T03:42:17.944Z,96.23
2024-03-14T03:43:17.908Z,96.71
2024-03-14T03:44:17.918Z,97.31
2024-03-14T03:45:17.923Z,98.12
2024-03-14T03:46:17.994Z,95.90
2024-03-14T03:47:18.082Z,97.09
2024-03-14T03:48:18.355Z,95.25
2024-03-14T03:49:18.274Z,97.96
2024-03-14T03:50:18.290Z,95.44
2024-03-14T03:51:18.296Z,97.55
2024-03-14T03:52:18.329Z,97.20
2024-03-14T03:53:18.370Z,96.63
2024-03-14T03:54:18.403Z,95.91
2024-03-14T03:55:18.728Z,95.32
2024-03-14T03:56:18.539Z,97.43
2024-03-14T03:57:18.674Z,97.20
2024-03-14T03:58:18.761Z,97.19
2024-03-14T03:59:18.895Z,97.96
2024-03-14T04:00:19.021Z,96.87
2024-03-14T04:01:19.132Z,95.33
2024-03-14T04:02:19.074Z,97.95
2024-03-14T04:03:19.245Z,99.26
2024-03-14T04:04:19.116Z,100.42
2024-03-14T04:05:19.226Z,94.99
2024-03-14T04:06:19.243Z,94.30
2024-03-14T04:07:19.236Z,98.30
2024-03-14T04:08:19.255Z,98.59
2024-03-14T04:09:19.312Z,98.02
2024-03-14T04:10:19.355Z,95.88
2024-03-14T04:11:19.438Z,97.71
2024-03-14T04:12:19.410Z,99.42
2024-03-14T04:13:19.398Z,97.31
2024-03-14T04:14:19.452Z,95.40
2024-03-14T04:15:19.502Z,97.59
2024-03-14T04:16:19.673Z,98.82
2024-03-14T04:17:19.631Z,96.38
2024-03-14T04:18:19.747Z,97.70
2024-03-14T04:19:19.675Z,96.43
2024-03-14T04:20:19.701Z,96.24
2024-03-14T04:21:19.940Z,95.48
2024-03-14T04:22:19.856Z,97.61
2024-03-14T04:23:19.836Z,97.21
2024-03-14T04:24:19.899Z,97.67
2024-03-14T04:25:19.868Z,96.39
2024-03-14T04:26:19.940Z,98.19
2024-03-14T04:27:19.981Z,99.79
2024-03-14T04:28:19.936Z,97.56
2024-03-14T04:29:27.845Z,50.00
2024-03-14T04:30:28.068Z,50.00
2024-03-14T04:31:35.998Z,50.00
2024-03-14T04:32:36.180Z,50.00
2024-03-14T04:33:36.440Z,50.00
2024-03-14T04:34:36.521Z,50.00
2024-03-14T04:35:36.582Z,50.00
2024-03-14T04:36:36.728Z,50.00
2024-03-14T04:37:36.950Z,50.91
2024-03-14T04:38:37.164Z,52.59
2024-03-14T04:39:37.346Z,50.01
2024-03-14T04:40:37.496Z,53.41
2024-03-14T04:41:37.645Z,53.52
2024-03-14T04:42:37.775Z,49.95
2024-03-14T04:43:37.981Z,51.85
2024-03-14T04:44:38.169Z,50.32
2024-03-14T04:45:38.370Z,55.49
2024-03-14T04:46:38.525Z,54.17
2024-03-14T04:47:38.661Z,52.97
2024-03-14T04:48:38.794Z,55.50
2024-03-14T04:49:38.885Z,54.66
2024-03-14T04:50:39.141Z,54.84
2024-03-14T04:51:39.306Z,53.86
2024-03-14T04:52:39.474Z,55.16
2024-03-14T04:53:39.534Z,54.12
2024-03-14T04:54:39.782Z,51.12
2024-03-14T04:55:39.906Z,54.59
2024-03-14T04:56:40.045Z,52.99
2024-03-14T04:57:40.218Z,52.25
2024-03-14T04:58:40.511Z,52.03
2024-03-14T04:59:40.625Z,52.89
2024-03-14T05:00:40.699Z,54.44
2024-03-14T05:01:40.950Z,53.54
2024-03-14T05:02:41.135Z,51.33
2024-03-14T05:03:41.412Z,52.68
2024-03-14T05:04:41.490Z,51.05
2024-03-14T05:05:41.717Z,53.35
2024-03-14T05:06:41.823Z,50.00
2024-03-14T05:07:42.008Z,50.91
2024-03-14T05:08:42.226Z,50.11
2024-03-14T05:09:42.365Z,51.79
2024-03-14T05:10:42.523Z,51.68
2024-03-14T05:11:42.716Z,51.49
2024-03-14T05:12:42.920Z,50.17
2024-03-14T05:13:43.087Z,52.78
2024-03-14T05:14:43.244Z,51.92
2024-03-14T05:15:43.433Z,50.48
2024-03-14T05:16:43.690Z,50.00
2024-03-14T05:17:44.045Z,50.00
2024-03-14T05:18:44.008Z,50.00
2024-03-14T05:19:44.036Z,50.21
2024-03-14T05:20:44.265Z,53.04
2024-03-14T05:21:44.409Z,53.04
2024-03-14T05:22:44.764Z,52.56
2024-03-14T05:23:44.897Z,51.90
2024-03-14T05:24:44.753Z,50.25
2024-03-14T05:25:44.821Z,50.00
2024-03-14T05:26:44.765Z,52.71
2024-03-14T05:27:46.635Z,52.16
2024-03-14T05:28:44.778Z,50.00
2024-03-14T05:29:44.782Z,51.97
2024-03-14T05:30:44.808Z,50.80
2024-03-14T05:31:44.771Z,50.68
2024-03-14T05:32:44.808Z,50.61
2024-03-14T05:33:44.957Z,52.07
2024-03-14T05:34:44.788Z,51.23
2024-03-14T05:35:44.796Z,53.01
2024-03-14T05:36:44.797Z,49.95
2024-03-14T05:37:44.821Z,52.38
2024-03-14T05:38:44.813Z,54.02
2024-03-14T05:39:44.893Z,55.74
2024-03-14T05:40:44.852Z,54.98
2024-03-14T05:41:44.850Z,53.05
2024-03-14T05:42:44.976Z,52.07
2024-03-14T05:43:44.894Z,52.52
2024-03-14T05:44:45.436Z,52.96
2024-03-14T05:45:45.018Z,52.92
2024-03-14T05:46:45.003Z,53.55
2024-03-14T05:47:45.034Z,53.33
2024-03-14T05:48:45.109Z,50.65
2024-03-14T05:49:45.166Z,54.55
2024-03-14T05:50:45.070Z,55.57
2024-03-14T05:51:45.165Z,56.05
2024-03-14T05:52:45.141Z,54.78
2024-03-14T05:53:45.194Z,56.02
2024-03-14T05:54:45.336Z,53.44
2024-03-14T05:55:46.012Z,55.89
2024-03-14T05:56:45.249Z,57.59
2024-03-14T05:57:45.292Z,57.56
2024-03-14T05:58:45.336Z,55.49
2024-03-14T05:59:45.453Z,58.62
2024-03-14T06:00:45.604Z,59.44
2024-03-14T06:01:45.819Z,59.38
2024-03-14T06:02:45.882Z,57.82
2024-03-14T06:03:46.107Z,57.13
2024-03-14T06:04:46.248Z,58.08
2024-03-14T06:05:46.396Z,59.86
2024-03-14T06:06:46.528Z,59.25
2024-03-14T06:07:46.689Z,62.07
2024-03-14T06:08:46.830Z,60.73
2024-03-14T06:09:47.007Z,60.49
2024-03-14T06:10:47.131Z,64.22
2024-03-14T06:11:47.281Z,60.02
2024-03-14T06:12:47.485Z,60.20
2024-03-14T06:13:47.597Z,62.01
2024-03-14T06:14:47.997Z,59.49
2024-03-14T06:15:47.903Z,56.33
2024-03-14T06:16:48.097Z,58.61
2024-03-14T06:17:48.242Z,55.06
2024-03-14T06:18:48.380Z,57.69
2024-03-14T06:19:48.529Z,58.12
2024-03-14T06:20:48.730Z,59.91
2024-03-14T06:21:48.842Z,57.82
2024-03-14T06:22:49.003Z,59.28
2024-03-14T06:23:49.026Z,59.45
2024-03-14T06:24:49.135Z,61.54
2024-03-14T06:25:49.142Z,62.11
2024-03-14T06:26:49.239Z,61.00
2024-03-14T06:27:49.207Z,61.29
2024-03-14T06:28:49.292Z,60.83
2024-03-14T06:29:49.363Z,60.35
2024-03-14T06:30:49.576Z,58.70
2024-03-14T06:31:49.517Z,56.03
2024-03-14T06:32:49.684Z,52.25
2024-03-14T06:33:49.645Z,50.00
2024-03-14T06:34:49.716Z,50.30
2024-03-14T06:35:49.765Z,50.29
2024-03-14T06:36:49.712Z,52.55
2024-03-14T06:37:49.831Z,50.03
2024-03-14T06:38:49.835Z,52.91
2024-03-14T06:39:49.886Z,51.65
2024-03-14T06:40:49.869Z,50.03
2024-03-14T06:41:50.076Z,52.53
2024-03-14T06:42:49.949Z,53.22
2024-03-14T06:43:49.980Z,53.93
2024-03-14T06:44:50.023Z,59.15
2024-03-14T06:45:50.035Z,58.01
2024-03-14T06:46:50.077Z,59.55
2024-03-14T06:47:50.173Z,59.85
2024-03-14T06:48:50.137Z,61.02
2024-03-14T06:49:50.108Z,63.72
2024-03-14T06:50:50.535Z,64.48
2024-03-14T06:51:50.108Z,70.31
2024-03-14T06:52:50.211Z,70.34
2024-03-14T06:53:50.205Z,71.29
2024-03-14T06:54:50.180Z,73.12
2024-03-14T06:55:50.140Z,79.41
2024-03-14T06:56:50.228Z,87.13
2024-03-14T06:57:50.984Z,92.02
2024-03-14T06:58:50.329Z,96.00
2024-03-14T06:59:50.706Z,99.14
2024-03-14T07:00:50.498Z,100.69
2024-03-14T07:01:50.934Z,106.23
2024-03-14T07:02:50.509Z,107.97
2024-03-14T07:03:50.515Z,113.86
2024-03-14T07:04:50.572Z,117.20
2024-03-14T07:05:50.642Z,119.74
2024-03-14T07:06:50.967Z,121.07
2024-03-14T07:07:50.611Z,121.79
2024-03-14T07:08:50.658Z,122.87
2024-03-14T07:09:50.650Z,125.42
2024-03-14T07:10:50.776Z,127.04
2024-03-14T07:11:50.993Z,131.36
2024-03-14T07:12:51.243Z,135.72
2024-03-14T07:13:51.265Z,141.11
2024-03-14T07:14:51.444Z,143.54
2024-03-14T07:15:51.613Z,148.55
2024-03-14T07:16:51.959Z,152.26
2024-03-14T07:17:53.481Z,158.04
2024-03-14T07:18:52.239Z,160.07
2024-03-14T07:19:51.876Z,163.60
2024-03-14T07:20:51.828Z,164.57
2024-03-14T07:21:51.967Z,168.09
2024-03-14T07:22:51.784Z,168.95
2024-03-14T07:23:51.832Z,171.99
2024-03-14T07:24:52.505Z,173.88
2024-03-14T07:25:51.794Z,177.39
2024-03-14T07:26:51.853Z,175.92
2024-03-14T07:27:51.834Z,179.98
2024-03-14T07:28:51.805Z,186.36
2024-03-14T07:29:51.931Z,186.61
2024-03-14T07:30:51.970Z,188.78
2024-03-14T07:31:51.900Z,190.17
2024-03-14T07:32:52.566Z,191.32
2024-03-14T07:33:51.925Z,196.27
2024-03-14T07:34:51.929Z,199.80
2024-03-14T07:35:51.873Z,200.73
2024-03-14T07:36:51.814Z,199.92
2024-03-14T07:37:51.845Z,199.28
2024-03-14T07:38:52.070Z,197.24
2024-03-14T07:39:51.842Z,199.56
2024-03-14T07:40:51.850Z,198.28
2024-03-14T07:41:51.887Z,196.78
2024-03-14T07:42:51.817Z,193.27
2024-03-14T07:44:00.608Z,187.12
2024-03-14T07:44:52.873Z,186.55
2024-03-14T07:45:51.976Z,179.50
2024-03-14T07:46:51.825Z,173.57
2024-03-14T07:47:51.897Z,169.87
2024-03-14T07:48:51.899Z,162.80
2024-03-14T07:49:51.884Z,160.59
2024-03-14T07:50:52.122Z,153.18
2024-03-14T07:51:52.461Z,150.00
2024-03-14T07:52:52.030Z,148.52
2024-03-14T07:53:51.925Z,145.45
2024-03-14T07:54:51.941Z,141.71
2024-03-14T07:55:51.993Z,142.93
2024-03-14T07:56:52.031Z,141.56
2024-03-14T07:57:54.018Z,139.04
2024-03-14T07:58:52.114Z,139.27
2024-03-14T07:59:53.075Z,139.57
2024-03-14T08:00:52.297Z,138.47
2024-03-14T08:01:52.253Z,138.18
2024-03-14T08:02:53.945Z,136.14
2024-03-14T08:03:52.373Z,135.70
2024-03-14T08:04:53.003Z,135.07
2024-03-14T08:05:52.605Z,137.33
2024-03-14T08:06:52.531Z,135.04
2024-03-14T08:08:04.922Z,138.57
2024-03-14T08:08:55.490Z,138.72
2024-03-14T08:09:53.389Z,138.71
2024-03-14T08:10:52.553Z,139.52
2024-03-14T08:11:53.380Z,140.18
2024-03-14T08:12:52.518Z,143.51
2024-03-14T08:13:52.529Z,149.02
2024-03-14T08:14:52.616Z,149.99
2024-03-14T08:15:52.551Z,153.25
2024-03-14T08:16:53.493Z,154.59
2024-03-14T08:17:52.639Z,156.43
2024-03-14T08:18:52.779Z,159.43
2024-03-14T08:19:52.591Z,163.71
2024-03-14T08:20:52.598Z,167.36
2024-03-14T08:21:53.013Z,170.08
2024-03-14T08:22:52.719Z,175.85
2024-03-14T08:23:52.639Z,181.84
2024-03-14T08:24:52.556Z,182.72
2024-03-14T08:25:52.556Z,187.23
2024-03-14T08:26:53.000Z,189.61
2024-03-14T08:27:52.573Z,192.03
2024-03-14T08:28:55.810Z,194.02
2024-03-14T08:29:55.609Z,194.23
2024-03-14T08:30:53.010Z,194.53
2024-03-14T08:31:52.541Z,197.44
2024-03-14T08:32:52.632Z,202.09
2024-03-14T08:33:53.066Z,207.76
2024-03-14T08:34:52.569Z,213.88
2024-03-14T08:35:52.591Z,198.33
2024-03-14T08:36:52.581Z,197.96
2024-03-14T08:37:52.593Z,196.54
2024-03-14T08:38:53.042Z,195.62
2024-03-14T08:39:52.659Z,197.73
2024-03-14T08:40:52.621Z,196.43
2024-03-14T08:41:52.647Z,195.01
2024-03-14T08:42:53.231Z,196.46
2024-03-14T08:43:52.637Z,199.27
2024-03-14T08:44:52.657Z,198.72
2024-03-14T08:45:53.086Z,199.59
2024-03-14T08:46:52.571Z,200.00
2024-03-14T08:47:52.649Z,198.96
2024-03-14T08:48:52.629Z,200.00
2024-03-14T08:49:52.592Z,200.00
2024-03-14T08:50:52.740Z,199.11
2024-03-14T08:51:52.601Z,200.00
2024-03-14T08:52:52.594Z,198.95
2024-03-14T08:53:52.680Z,199.73
2024-03-14T08:54:52.606Z,199.05
2024-03-14T08:55:53.019Z,200.00
2024-03-14T08:56:52.646Z,197.96
2024-03-14T08:57:52.771Z,198.32
2024-03-14T08:59:07.033Z,198.80
2024-03-14T08:59:52.662Z,198.92
2024-03-14T09:00:52.753Z,199.70
2024-03-14T09:01:52.700Z,201.25
2024-03-14T09:02:53.499Z,202.32
2024-03-14T09:03:52.979Z,203.77
2024-03-14T09:04:52.749Z,198.62
2024-03-14T09:05:52.819Z,196.58
2024-03-14T09:06:52.785Z,196.00
2024-03-14T09:07:52.861Z,192.20
2024-03-14T09:08:53.007Z,189.72
2024-03-14T09:09:53.070Z,190.08
2024-03-14T09:10:53.004Z,185.59
2024-03-14T09:11:53.013Z,182.57
2024-03-14T09:12:53.025Z,179.58
2024-03-14T09:13:54.013Z,174.65
2024-03-14T09:14:54.053Z,170.13
2024-03-14T09:15:53.104Z,168.21
2024-03-14T09:16:53.487Z,165.83
2024-03-14T09:17:54.099Z,162.74
2024-03-14T09:18:53.314Z,160.84
2024-03-14T09:19:53.241Z,158.56
2024-03-14T09:20:54.998Z,155.14
2024-03-14T09:21:53.522Z,153.64
2024-03-14T09:22:53.369Z,148.85
2024-03-14T09:23:53.388Z,146.55
2024-03-14T09:24:53.527Z,143.37
2024-03-14T09:25:53.445Z,141.98
2024-03-14T09:26:53.527Z,139.29
2024-03-14T09:27:53.647Z,139.16
2024-03-14T09:28:53.579Z,137.48
2024-03-14T09:29:53.582Z,133.48
2024-03-14T09:30:53.633Z,124.88
2024-03-14T09:31:53.736Z,119.73
2024-03-14T09:32:53.793Z,112.74
2024-03-14T09:33:53.820Z,107.72
2024-03-14T09:34:54.009Z,103.29
2024-03-14T09:35:53.962Z,99.00
2024-03-14T09:36:54.034Z,95.42
2024-03-14T09:37:54.060Z,91.55
2024-03-14T09:38:54.115Z,88.41
2024-03-14T09:39:54.146Z,85.11
2024-03-14T09:40:59.870Z,82.28
2024-03-14T09:41:55.232Z,82.29
2024-03-14T09:42:54.221Z,80.68
2024-03-14T09:43:54.255Z,75.22
2024-03-14T09:44:54.302Z,74.13
2024-03-14T09:45:54.494Z,74.95
2024-03-14T09:46:54.385Z,74.62
2024-03-14T09:47:54.450Z,72.09
2024-03-14T09:48:54.527Z,73.23
2024-03-14T09:49:54.500Z,73.50
2024-03-14T09:50:55.523Z,73.18
2024-03-14T09:51:55.515Z,72.80
2024-03-14T09:52:54.708Z,71.98
2024-03-14T09:53:54.656Z,73.63
2024-03-14T09:54:54.700Z,74.60
2024-03-14T09:55:54.703Z,74.14
2024-03-14T09:56:55.045Z,75.59
2024-03-14T09:57:55.176Z,76.14
2024-03-14T09:58:55.613Z,76.16
2024-03-14T09:59:54.793Z,76.66
2024-03-14T10:00:54.805Z,78.45
2024-03-14T10:01:54.818Z,79.90
2024-03-14T10:02:54.833Z,80.38
2024-03-14T10:03:54.818Z,82.10
2024-03-14T10:04:56.148Z,84.38
2024-03-14T10:05:54.988Z,83.83
2024-03-14T10:06:55.221Z,88.99
2024-03-14T10:07:54.952Z,87.50
2024-03-14T10:08:55.057Z,89.20
2024-03-14T10:09:55.690Z,88.90
2024-03-14T10:10:55.911Z,90.37
2024-03-14T10:11:55.593Z,91.88
2024-03-14T10:12:56.266Z,91.04
2024-03-14T10:13:55.287Z,93.07
2024-03-14T10:14:55.394Z,93.55
2024-03-14T10:15:55.622Z,92.51
2024-03-14T10:16:55.587Z,94.44
2024-03-14T10:17:55.662Z,95.74
2024-03-14T10:18:56.180Z,95.93
2024-03-14T10:19:55.682Z,96.77
2024-03-14T10:20:56.951Z,98.43
2024-03-14T10:21:56.540Z,101.83
2024-03-14T10:22:56.940Z,103.25
2024-03-14T10:23:55.996Z,104.43
2024-03-14T10:24:56.719Z,104.87
2024-03-14T10:25:56.231Z,106.21
2024-03-14T10:27:04.446Z,108.02
2024-03-14T10:28:01.575Z,108.21
2024-03-14T10:28:59.127Z,108.33
2024-03-14T10:29:56.245Z,109.49
2024-03-14T10:30:56.192Z,111.96
2024-03-14T10:31:56.191Z,116.39
2024-03-14T10:32:56.304Z,122.17
2024-03-14T10:33:56.260Z,122.97
2024-03-14T10:34:56.599Z,124.42
2024-03-14T10:35:56.188Z,126.92
2024-03-14T10:36:56.329Z,126.58
2024-03-14T10:37:56.556Z,127.76
2024-03-14T10:38:56.225Z,127.27
2024-03-14T10:39:56.221Z,126.25
2024-03-14T10:40:56.199Z,125.85
2024-03-14T10:41:56.274Z,125.88
2024-03-14T10:42:56.518Z,125.51
2024-03-14T10:43:56.221Z,124.64
2024-03-14T10:44:56.257Z,121.25
2024-03-14T10:45:56.225Z,120.28
2024-03-14T10:46:58.087Z,119.04
2024-03-14T10:47:57.326Z,119.10
2024-03-14T10:48:56.325Z,116.28
2024-03-14T10:49:56.194Z,115.54
2024-03-14T10:50:56.271Z,112.79
2024-03-14T10:51:56.213Z,110.26
2024-03-14T10:52:56.785Z,107.43
2024-03-14T10:53:56.609Z,106.99
2024-03-14T10:54:56.284Z,105.51
2024-03-14T10:55:57.169Z,103.07
2024-03-14T10:56:56.351Z,100.05
2024-03-14T10:57:56.521Z,97.96
2024-03-14T10:58:57.443Z,95.36
2024-03-14T10:59:57.193Z,92.74
2024-03-14T11:00:56.651Z,90.26
2024-03-14T11:01:58.816Z,89.23
2024-03-14T11:02:57.666Z,88.03
2024-03-14T11:03:57.076Z,83.42
2024-03-14T11:04:56.870Z,84.21
2024-03-14T11:05:56.957Z,80.81
2024-03-14T11:06:57.537Z,78.17
2024-03-14T11:07:57.098Z,75.88
2024-03-14T11:08:57.595Z,73.81
2024-03-14T11:09:57.212Z,72.07
2024-03-14T11:10:57.294Z,71.59
2024-03-14T11:11:57.560Z,67.81
2024-03-14T11:12:58.078Z,68.06
2024-03-14T11:13:57.519Z,66.44
2024-03-14T11:14:57.585Z,65.20
2024-03-14T11:15:57.700Z,64.07
2024-03-14T11:16:59.710Z,63.57
2024-03-14T11:17:58.150Z,63.65
2024-03-14T11:18:57.724Z,63.99
2024-03-14T11:19:57.694Z,64.19
2024-03-14T11:21:00.625Z,65.64
2024-03-14T11:21:58.201Z,63.69
2024-03-14T11:22:57.650Z,64.14
2024-03-14T11:23:58.679Z,65.54
2024-03-14T11:24:57.767Z,65.96
2024-03-14T11:25:57.684Z,69.11
2024-03-14T11:26:57.716Z,68.43
2024-03-14T11:27:58.560Z,68.63
2024-03-14T11:28:58.287Z,68.44
2024-03-14T11:29:57.779Z,68.59
2024-03-14T11:30:57.705Z,68.95
2024-03-14T11:31:57.726Z,70.30
2024-03-14T11:32:57.935Z,71.06
2024-03-14T11:33:58.193Z,69.53
2024-03-14T11:34:58.281Z,69.91
2024-03-14T11:35:57.758Z,71.06
2024-03-14T11:36:57.689Z,71.33
2024-03-14T11:37:57.714Z,72.09
2024-03-14T11:38:58.181Z,72.65
2024-03-14T11:39:57.730Z,72.66
2024-03-14T11:40:59.167Z,73.63
2024-03-14T11:41:57.751Z,74.15
2024-03-14T11:42:57.705Z,73.14
2024-03-14T11:43:58.078Z,74.83
2024-03-14T11:44:57.741Z,75.06
2024-03-14T11:45:57.717Z,75.02
2024-03-14T11:46:57.710Z,75.71
2024-03-14T11:47:57.765Z,73.66
2024-03-14T11:48:57.791Z,74.97
2024-03-14T11:49:57.700Z,72.90
2024-03-14T11:50:57.725Z,74.75
2024-03-14T11:51:58.060Z,72.64
2024-03-14T11:53:00.266Z,74.72
2024-03-14T11:53:57.740Z,74.73
2024-03-14T11:54:57.751Z,74.86
2024-03-14T11:56:06.203Z,75.48
2024-03-14T11:56:58.748Z,74.77
2024-03-14T11:57:58.069Z,75.21
2024-03-14T11:58:57.805Z,75.37
2024-03-14T12:00:03.229Z,75.37
2024-03-14T12:00:58.821Z,74.81
2024-03-14T12:02:00.089Z,75.00
2024-03-14T12:02:58.186Z,74.86
2024-03-14T12:03:58.133Z,75.25
2024-03-14T12:04:57.930Z,75.60
2024-03-14T12:05:58.479Z,76.18
2024-03-14T12:06:57.817Z,78.00
2024-03-14T12:07:57.759Z,76.53
2024-03-14T12:08:58.114Z,77.12
2024-03-14T12:09:57.731Z,77.84
2024-03-14T12:10:58.570Z,78.56
2024-03-14T12:11:57.803Z,79.29
2024-03-14T12:12:57.741Z,77.12
2024-03-14T12:13:58.084Z,77.12
2024-03-14T12:14:57.770Z,79.54
2024-03-14T12:15:57.773Z,78.21
2024-03-14T12:16:57.808Z,77.71
2024-03-14T12:17:58.169Z,79.74
2024-03-14T12:18:58.141Z,77.54
2024-03-14T12:19:57.928Z,79.87
2024-03-14T12:20:57.936Z,78.45
2024-03-14T12:21:57.948Z,76.83
2024-03-14T12:22:58.032Z,77.29
2024-03-14T12:23:58.132Z,77.63
2024-03-14T12:24:58.586Z,78.01
2024-03-14T12:25:58.153Z,78.46
2024-03-14T12:26:58.274Z,77.33
2024-03-14T12:27:58.273Z,79.03
2024-03-14T12:28:58.389Z,79.15
2024-03-14T12:29:58.464Z,78.29
2024-03-14T12:30:58.493Z,76.37
2024-03-14T12:31:58.601Z,78.02
2024-03-14T12:32:58.705Z,77.97
2024-03-14T12:34:00.174Z,76.78
2024-03-14T12:34:58.749Z,76.52
2024-03-14T12:35:58.738Z,78.58
2024-03-14T12:36:58.739Z,75.92
2024-03-14T12:37:58.799Z,76.80
2024-03-14T12:38:58.764Z,76.51
2024-03-14T12:39:58.756Z,77.11
2024-03-14T12:40:58.761Z,77.61
2024-03-14T12:41:58.814Z,77.06
2024-03-14T12:42:58.787Z,76.05
2024-03-14T12:43:58.753Z,74.27
2024-03-14T12:44:58.741Z,77.43
2024-03-14T12:45:58.763Z,75.34
2024-03-14T12:46:58.762Z,77.75